Time;durP1;ratioP1;P1;durP2;ratioP2;P2;SDS_P1;SDS_P2;PMS_P1;PMS_P2;Temp;Humidity;BMP_temperature;BMP_pressure;BME280_temperature;BME280_humidity;BME280_pressure;Samples;Min_cycle;Max_cycle;Signal;HPM_P1;HPM_P2
2023/04/11 00:01:33;;;;;;;8.20;5.22;;;;;;;;;;5051852;28;20103;-71
2023/04/11 00:03:59;;;;;;;8.18;5.10;;;;;;;;;;5051709;28;20071;-71
2023/04/11 00:06:26;;;;;;;8.15;5.15;;;;;;;;;;5051872;28;20037;-71
2023/04/11 00:08:52;;;;;;;8.88;4.93;;;;;;;;;;5051885;28;20025;-71
2023/04/11 00:11:18;;;;;;;8.35;5.05;;;;;;;;;;5051632;28;20032;-70
2023/04/11 00:13:46;;;;;;;9.23;5.22;;;;;;;;;;5051424;28;20017;-72
2023/04/11 00:16:12;;;;;;;8.40;4.85;;;;;;;;;;5051721;28;20045;-71
2023/04/11 00:18:43;;;;;;;11.88;5.32;;;;;;;;;;5051563;28;20071;-70
2023/04/11 00:21:09;;;;;;;10.63;4.88;;;;;;;;;;5051656;28;20025;-69
2023/04/11 00:23:35;;;;;;;8.52;4.90;;;;;;;;;;5051302;28;20120;-71
2023/04/11 00:26:01;;;;;;;7.65;4.53;;;;;;;;;;5051419;28;20053;-72
2023/04/11 00:28:27;;;;;;;6.80;4.18;;;;;;;;;;5051356;28;20025;-71
2023/04/11 00:30:53;;;;;;;7.30;4.28;;;;;;;;;;5051381;28;20017;-71
2023/04/11 00:33:19;;;;;;;6.10;4.43;;;;;;;;;;5051057;28;20259;-71
2023/04/11 00:35:45;;;;;;;9.80;4.80;;;;;;;;;;5051376;28;20605;-70
2023/04/11 00:38:11;;;;;;;8.57;4.78;;;;;;;;;;5051021;28;20017;-71
2023/04/11 00:40:37;;;;;;;6.18;3.75;;;;;;;;;;5050721;28;20150;-69
2023/04/11 00:43:03;;;;;;;9.45;4.38;;;;;;;;;;5051138;28;20025;-71
2023/04/11 00:45:29;;;;;;;7.80;4.30;;;;;;;;;;5051347;28;20580;-71
2023/04/11 00:47:55;;;;;;;6.70;3.85;;;;;;;;;;5051433;28;20035;-72
2023/04/11 00:50:23;;;;;;;6.43;4.32;;;;;;;;;;5051935;28;20025;-71
2023/04/11 00:52:50;;;;;;;5.55;3.55;;;;;;;;;;5051413;28;20037;-71
2023/04/11 00:55:16;;;;;;;6.07;4.05;;;;;;;;;;5051989;28;20052;-72
2023/04/11 00:57:43;;;;;;;9.20;4.03;;;;;;;;;;5056734;28;20106;-72
2023/04/11 01:00:09;;;;;;;8.40;4.70;;;;;;;;;;5062180;28;20039;-72
2023/04/11 01:02:36;;;;;;;8.93;4.78;;;;;;;;;;5060441;28;20024;-72
2023/04/11 01:05:03;;;;;;;10.65;3.97;;;;;;;;;;5037372;28;20021;-71
2023/04/11 01:07:30;;;;;;;6.05;3.67;;;;;;;;;;5053703;28;20043;-72
2023/04/11 01:09:57;;;;;;;8.25;4.00;;;;;;;;;;5057800;28;20017;-71
2023/04/11 01:12:23;;;;;;;7.10;3.60;;;;;;;;;;5060244;28;20033;-72
2023/04/11 01:14:49;;;;;;;7.40;4.38;;;;;;;;;;5059672;28;20032;-71
2023/04/11 01:17:15;;;;;;;7.43;3.83;;;;;;;;;;5060541;28;20025;-72
2023/04/11 01:19:41;;;;;;;7.00;4.13;;;;;;;;;;5055656;28;20021;-71
2023/04/11 01:22:08;;;;;;;5.05;3.95;;;;;;;;;;5050964;28;20095;-71
2023/04/11 01:24:34;;;;;;;6.07;3.72;;;;;;;;;;5050969;28;20056;-72
2023/04/11 01:27:01;;;;;;;8.65;4.03;;;;;;;;;;5050648;28;20166;-72
2023/04/11 01:29:27;;;;;;;6.75;4.18;;;;;;;;;;5050761;28;20021;-71
2023/04/11 01:31:53;;;;;;;8.90;4.38;;;;;;;;;;5050862;28;20391;-70
2023/04/11 01:34:20;;;;;;;7.20;3.63;;;;;;;;;;5050977;28;20028;-70
2023/04/11 01:36:47;;;;;;;5.97;3.65;;;;;;;;;;5050813;28;20025;-71
2023/04/11 01:39:13;;;;;;;7.30;4.28;;;;;;;;;;5051128;28;20033;-70
2023/04/11 01:41:40;;;;;;;9.15;3.65;;;;;;;;;;5050527;28;20660;-71
2023/04/11 01:44:05;;;;;;;6.65;4.00;;;;;;;;;;5050504;28;20029;-71
2023/04/11 01:46:31;;;;;;;9.23;3.70;;;;;;;;;;5051215;28;20025;-72
2023/04/11 01:49:00;;;;;;;8.70;4.47;;;;;;;;;;5050696;28;20576;-71
2023/04/11 01:51:26;;;;;;;10.90;4.03;;;;;;;;;;5053683;28;20028;-70
2023/04/11 01:53:52;;;;;;;9.40;3.85;;;;;;;;;;5054452;28;20398;-70
2023/04/11 01:56:18;;;;;;;7.68;4.13;;;;;;;;;;5054142;28;20033;-71
2023/04/11 01:58:44;;;;;;;5.85;3.70;;;;;;;;;;5053271;28;20017;-71
2023/04/11 02:01:12;;;;;;;7.55;3.80;;;;;;;;;;5054233;28;20088;-71
2023/04/11 02:03:38;;;;;;;6.20;3.88;;;;;;;;;;5053774;28;20032;-70
2023/04/11 02:06:04;;;;;;;7.15;3.78;;;;;;;;;;5054043;28;20025;-71
2023/04/11 02:08:30;;;;;;;5.80;3.28;;;;;;;;;;5053868;28;20086;-71
2023/04/11 02:10:56;;;;;;;7.60;3.53;;;;;;;;;;5054109;28;20021;-71
2023/04/11 02:13:22;;;;;;;6.50;3.72;;;;;;;;;;5053588;28;20480;-71
2023/04/11 02:15:48;;;;;;;7.32;3.72;;;;;;;;;;5053828;28;20096;-72
2023/04/11 02:18:14;;;;;;;6.28;3.42;;;;;;;;;;5053628;28;20375;-70
2023/04/11 02:20:40;;;;;;;8.20;3.30;;;;;;;;;;5053908;28;20036;-70
2023/04/11 02:23:06;;;;;;;7.65;3.35;;;;;;;;;;5053508;28;20033;-70
2023/04/11 02:25:32;;;;;;;5.85;2.95;;;;;;;;;;5053980;28;20482;-70
2023/04/11 02:27:58;;;;;;;7.28;3.60;;;;;;;;;;5053884;28;20025;-70
2023/04/11 02:30:24;;;;;;;5.63;3.40;;;;;;;;;;5054555;28;20029;-71
2023/04/11 02:32:50;;;;;;;10.80;3.55;;;;;;;;;;5054642;28;20027;-71
2023/04/11 02:35:17;;;;;;;7.57;3.70;;;;;;;;;;5053744;28;20385;-71
2023/04/11 02:37:43;;;;;;;7.38;4.07;;;;;;;;;;5053211;28;20482;-70
2023/04/11 02:40:09;;;;;;;11.32;3.90;;;;;;;;;;5053286;28;20025;-71
2023/04/11 02:42:35;;;;;;;8.13;4.03;;;;;;;;;;5052817;28;20190;-71
2023/04/11 02:45:02;;;;;;;9.77;3.70;;;;;;;;;;5054521;28;20024;-71
2023/04/11 02:47:28;;;;;;;8.05;4.28;;;;;;;;;;5072819;28;20071;-72
2023/04/11 02:49:54;;;;;;;10.88;4.60;;;;;;;;;;5072877;28;20075;-71
2023/04/11 02:52:21;;;;;;;11.20;4.35;;;;;;;;;;5072655;28;20013;-71
2023/04/11 02:54:47;;;;;;;6.55;3.92;;;;;;;;;;5072605;28;20489;-71
2023/04/11 02:57:13;;;;;;;7.50;4.35;;;;;;;;;;5072835;28;20029;-69
2023/04/11 02:59:39;;;;;;;10.52;5.15;;;;;;;;;;5072937;28;20486;-71
2023/04/11 03:02:05;;;;;;;6.82;4.60;;;;;;;;;;5071439;28;20579;-70
2023/04/11 03:04:31;;;;;;;9.85;3.28;;;;;;;;;;5072649;28;20075;-72
2023/04/11 03:06:57;;;;;;;10.07;3.10;;;;;;;;;;5072745;28;20040;-71
2023/04/11 03:09:23;;;;;;;4.63;2.42;;;;;;;;;;5073277;28;20021;-70
2023/04/11 03:11:49;;;;;;;4.50;2.70;;;;;;;;;;5072616;28;20032;-72
2023/04/11 03:14:15;;;;;;;5.55;1.70;;;;;;;;;;5073135;28;20048;-71
2023/04/11 03:16:41;;;;;;;4.10;1.77;;;;;;;;;;5072817;28;20055;-72
2023/04/11 03:19:07;;;;;;;5.07;1.88;;;;;;;;;;5073581;28;20103;-71
2023/04/11 03:21:33;;;;;;;3.45;2.00;;;;;;;;;;5073254;28;20028;-70
2023/04/11 03:23:59;;;;;;;5.30;1.75;;;;;;;;;;5073367;28;20032;-72
2023/04/11 03:26:25;;;;;;;7.00;1.70;;;;;;;;;;5073052;28;20446;-72
2023/04/11 03:28:52;;;;;;;8.38;1.70;;;;;;;;;;5072897;28;20087;-73
2023/04/11 03:31:18;;;;;;;4.00;1.30;;;;;;;;;;5072665;28;20385;-74
2023/04/11 03:33:47;;;;;;;2.50;1.30;;;;;;;;;;5071621;28;20025;-72
2023/04/11 03:36:13;;;;;;;4.25;1.38;;;;;;;;;;5073303;28;20029;-70
2023/04/11 03:38:39;;;;;;;2.65;1.10;;;;;;;;;;5073691;28;20032;-70
2023/04/11 03:41:05;;;;;;;4.55;1.33;;;;;;;;;;5074929;28;20021;-76
2023/04/11 03:43:31;;;;;;;6.88;1.33;;;;;;;;;;5073544;28;20059;-70
2023/04/11 03:45:57;;;;;;;2.72;1.20;;;;;;;;;;5055625;28;20447;-70
2023/04/11 03:48:28;;;;;;;6.63;1.60;;;;;;;;;;5073370;28;20027;-70
2023/04/11 03:50:54;;;;;;;2.75;1.50;;;;;;;;;;5073076;28;20025;-72
2023/04/11 03:53:20;;;;;;;5.38;1.40;;;;;;;;;;5073527;28;20024;-71
2023/04/11 03:55:47;;;;;;;7.78;1.73;;;;;;;;;;5073098;28;20035;-71
2023/04/11 03:58:14;;;;;;;3.55;1.20;;;;;;;;;;5072662;28;20070;-70
2023/04/11 04:00:40;;;;;;;3.05;1.20;;;;;;;;;;5072996;28;20021;-71
2023/04/11 04:03:06;;;;;;;4.72;1.40;;;;;;;;;;5072715;28;20066;-70
2023/04/11 04:05:32;;;;;;;4.05;1.60;;;;;;;;;;5073413;28;20103;-70
2023/04/11 04:07:58;;;;;;;3.50;1.63;;;;;;;;;;5072922;28;20100;-70
2023/04/11 04:10:24;;;;;;;4.75;1.48;;;;;;;;;;5074049;28;20017;-72
2023/04/11 04:12:51;;;;;;;5.97;1.10;;;;;;;;;;5075659;28;20029;-70
2023/04/11 04:15:17;;;;;;;3.08;1.35;;;;;;;;;;5073134;28;20071;-71
2023/04/11 04:17:43;;;;;;;5.15;1.20;;;;;;;;;;5073295;28;20142;-70
2023/04/11 04:20:09;;;;;;;3.72;1.23;;;;;;;;;;5073569;28;20017;-70
2023/04/11 04:22:35;;;;;;;7.05;4.13;;;;;;;;;;5073186;28;20127;-69
2023/04/11 04:25:01;;;;;;;5.63;1.25;;;;;;;;;;5072539;28;20059;-72
2023/04/11 04:27:27;;;;;;;8.15;1.15;;;;;;;;;;5067006;28;20446;-74
2023/04/11 04:29:55;;;;;;;5.55;1.55;;;;;;;;;;5065902;28;20159;-74
2023/04/11 04:32:22;;;;;;;4.40;1.30;;;;;;;;;;5062752;28;20068;-73
2023/04/11 04:34:53;;;;;;;6.38;1.27;;;;;;;;;;5063470;28;20016;-73
2023/04/11 04:37:23;;;;;;;4.65;1.17;;;;;;;;;;5063454;28;20019;-73
2023/04/11 04:39:55;;;;;;;3.60;1.15;;;;;;;;;;5060903;28;20032;-74
2023/04/11 04:42:25;;;;;;;4.50;1.50;;;;;;;;;;5060617;28;20028;-73
2023/04/11 04:44:51;;;;;;;3.10;1.50;;;;;;;;;;5060200;28;20036;-74
2023/04/11 04:47:18;;;;;;;5.47;1.77;;;;;;;;;;5064004;28;20037;-74
2023/04/11 04:49:45;;;;;;;7.20;1.60;;;;;;;;;;5066357;28;20097;-74
2023/04/11 04:52:14;;;;;;;10.05;1.67;;;;;;;;;;5063757;28;20031;-72
2023/04/11 04:54:40;;;;;;;3.30;1.10;;;;;;;;;;5061207;28;20032;-74
2023/04/11 04:57:07;;;;;;;4.40;1.50;;;;;;;;;;5051696;28;20111;-71
2023/04/11 04:59:33;;;;;;;5.90;1.33;;;;;;;;;;5052058;28;20398;-70
2023/04/11 05:01:59;;;;;;;6.05;1.55;;;;;;;;;;5051922;28;20228;-69
2023/04/11 05:04:25;;;;;;;6.05;1.83;;;;;;;;;;5051897;28;20029;-70
2023/04/11 05:06:51;;;;;;;4.28;1.70;;;;;;;;;;5051618;28;20387;-71
2023/04/11 05:09:17;;;;;;;8.45;1.88;;;;;;;;;;5051241;28;20167;-71
2023/04/11 05:11:44;;;;;;;15.13;4.85;;;;;;;;;;5052041;28;20094;-71
2023/04/11 05:14:10;;;;;;;7.65;2.00;;;;;;;;;;5052671;28;20021;-75
2023/04/11 05:16:36;;;;;;;7.15;1.75;;;;;;;;;;5051725;28;20035;-71
2023/04/11 05:19:03;;;;;;;6.35;1.60;;;;;;;;;;5051321;28;20461;-72
2023/04/11 05:21:29;;;;;;;6.18;1.95;;;;;;;;;;5053146;28;20056;-75
2023/04/11 05:23:55;;;;;;;7.82;1.75;;;;;;;;;;5054949;28;20029;-72
2023/04/11 05:26:21;;;;;;;9.45;2.00;;;;;;;;;;5064283;28;20040;-71
2023/04/11 05:28:47;;;;;;;11.32;2.00;;;;;;;;;;5068038;28;20037;-74
2023/04/11 05:31:13;;;;;;;5.05;1.90;;;;;;;;;;5063769;28;20049;-71
2023/04/11 05:33:40;;;;;;;9.98;1.90;;;;;;;;;;5064596;28;20029;-70
2023/04/11 05:36:07;;;;;;;12.98;2.08;;;;;;;;;;5070221;28;20032;-70
2023/04/11 05:38:33;;;;;;;6.32;1.80;;;;;;;;;;5066464;28;20078;-72
2023/04/11 05:40:59;;;;;;;7.40;1.85;;;;;;;;;;5065721;28;20075;-72
2023/04/11 05:43:25;;;;;;;11.93;2.17;;;;;;;;;;5064145;28;20052;-70
2023/04/11 05:45:51;;;;;;;6.22;2.10;;;;;;;;;;5065445;28;20021;-71
2023/04/11 05:48:21;;;;;;;10.10;2.47;;;;;;;;;;5063623;28;20040;-71
2023/04/11 05:50:47;;;;;;;11.45;2.50;;;;;;;;;;5067334;28;20020;-76
2023/04/11 05:53:13;;;;;;;10.00;1.90;;;;;;;;;;5066999;28;20039;-71
2023/04/11 05:55:39;;;;;;;12.63;2.33;;;;;;;;;;5064611;28;20024;-70
2023/04/11 05:58:05;;;;;;;10.00;2.10;;;;;;;;;;5055057;28;20128;-70
2023/04/11 06:00:31;;;;;;;10.63;2.38;;;;;;;;;;5054875;28;20071;-70
2023/04/11 06:02:58;;;;;;;9.68;2.00;;;;;;;;;;5054980;28;20166;-69
2023/04/11 06:05:25;;;;;;;12.23;2.20;;;;;;;;;;5054985;28;20075;-71
2023/04/11 06:07:51;;;;;;;9.77;2.25;;;;;;;;;;5054832;28;22008;-71
2023/04/11 06:10:17;;;;;;;11.65;2.45;;;;;;;;;;5055589;28;20036;-71
2023/04/11 06:12:43;;;;;;;15.15;2.78;;;;;;;;;;5056636;28;20104;-70
2023/04/11 06:15:10;;;;;;;9.40;2.38;;;;;;;;;;5055409;28;20064;-71
2023/04/11 06:17:37;;;;;;;10.82;2.30;;;;;;;;;;5055643;28;20107;-70
2023/04/11 06:20:04;;;;;;;10.35;2.20;;;;;;;;;;5055183;28;20100;-72
2023/04/11 06:22:30;;;;;;;12.20;2.00;;;;;;;;;;5055465;28;20027;-72
2023/04/11 06:24:56;;;;;;;12.63;3.28;;;;;;;;;;5054891;28;20025;-72
2023/04/11 06:27:22;;;;;;;18.33;2.97;;;;;;;;;;5054654;28;20029;-75
2023/04/11 06:29:48;;;;;;;12.23;2.58;;;;;;;;;;5056079;28;20044;-73
2023/04/11 06:32:15;;;;;;;14.05;2.75;;;;;;;;;;5055680;28;20051;-78
2023/04/11 06:34:41;;;;;;;9.00;2.42;;;;;;;;;;5056268;28;20485;-70
2023/04/11 06:37:07;;;;;;;12.52;3.45;;;;;;;;;;5053957;28;20053;-71
2023/04/11 06:39:34;;;;;;;18.15;3.45;;;;;;;;;;5055703;28;20124;-72
2023/04/11 06:42:00;;;;;;;15.60;3.30;;;;;;;;;;5055598;28;20025;-71
2023/04/11 06:44:26;;;;;;;14.20;2.53;;;;;;;;;;5054663;28;20099;-69
2023/04/11 06:46:52;;;;;;;9.98;2.38;;;;;;;;;;5054026;28;20059;-71
2023/04/11 06:49:18;;;;;;;16.00;2.80;;;;;;;;;;5053937;28;20458;-72
2023/04/11 06:51:49;;;;;;;13.75;2.60;;;;;;;;;;5053723;28;20052;-72
2023/04/11 06:54:15;;;;;;;14.20;3.78;;;;;;;;;;5053295;28;20040;-71
2023/04/11 06:56:41;;;;;;;18.67;7.22;;;;;;;;;;5052867;28;20037;-72
2023/04/11 06:59:07;;;;;;;10.65;2.97;;;;;;;;;;5052906;28;20021;-72
2023/04/11 07:01:38;;;;;;;16.33;3.15;;;;;;;;;;5052983;28;20095;-71
2023/04/11 07:04:07;;;;;;;14.43;2.78;;;;;;;;;;5052584;28;20356;-71
2023/04/11 07:06:34;;;;;;;10.82;2.58;;;;;;;;;;5052551;28;20029;-70
2023/04/11 07:09:00;;;;;;;5.68;1.98;;;;;;;;;;5052492;28;20024;-73
2023/04/11 07:11:27;;;;;;;12.30;2.28;;;;;;;;;;5052327;28;20096;-71
2023/04/11 07:13:55;;;;;;;7.63;2.05;;;;;;;;;;5052489;28;20032;-71
2023/04/11 07:16:21;;;;;;;7.50;1.95;;;;;;;;;;5052837;28;20044;-71
2023/04/11 07:18:47;;;;;;;5.13;1.33;;;;;;;;;;5052585;28;20126;-76
2023/04/11 07:21:13;;;;;;;6.90;1.10;;;;;;;;;;5053089;28;20029;-71
2023/04/11 07:23:39;;;;;;;2.08;0.90;;;;;;;;;;5052500;28;20073;-72
2023/04/11 07:26:09;;;;;;;2.47;0.98;;;;;;;;;;5052803;28;20060;-70
2023/04/11 07:28:36;;;;;;;3.75;0.93;;;;;;;;;;5052782;28;20028;-70
2023/04/11 07:31:02;;;;;;;1.63;0.70;;;;;;;;;;5053283;28;20017;-71
2023/04/11 07:33:28;;;;;;;2.08;0.80;;;;;;;;;;5052933;28;20440;-71
2023/04/11 07:35:54;;;;;;;3.45;1.00;;;;;;;;;;5052504;28;20096;-71
2023/04/11 07:38:28;;;;;;;3.20;0.90;;;;;;;;;;5052598;28;20437;-71
2023/04/11 07:40:55;;;;;;;3.95;1.05;;;;;;;;;;5052541;28;20029;-72
2023/04/11 07:43:21;;;;;;;5.47;1.58;;;;;;;;;;5052473;28;20029;-71
2023/04/11 07:45:46;;;;;;;4.13;1.23;;;;;;;;;;5052309;28;20036;-71
2023/04/11 07:48:12;;;;;;;4.22;1.20;;;;;;;;;;5052260;28;20053;-73
2023/04/11 07:50:38;;;;;;;3.75;1.38;;;;;;;;;;5052472;28;20020;-71
2023/04/11 07:53:05;;;;;;;4.90;1.50;;;;;;;;;;5053191;28;20385;-70
2023/04/11 07:55:30;;;;;;;1.88;0.90;;;;;;;;;;5053688;28;20517;-70
2023/04/11 07:57:56;;;;;;;4.55;1.17;;;;;;;;;;5053025;28;20061;-71
2023/04/11 08:00:22;;;;;;;5.68;1.13;;;;;;;;;;5053382;28;20478;-71
2023/04/11 08:02:50;;;;;;;2.25;0.88;;;;;;;;;;5053021;28;20087;-70
2023/04/11 08:05:16;;;;;;;4.47;1.33;;;;;;;;;;5054499;28;20057;-70
2023/04/11 08:07:42;;;;;;;4.07;1.20;;;;;;;;;;5053875;28;20029;-72
2023/04/11 08:10:08;;;;;;;3.80;1.30;;;;;;;;;;5052670;28;20075;-71
2023/04/11 08:12:34;;;;;;;1.92;0.98;;;;;;;;;;5051988;28;20032;-69
2023/04/11 08:15:01;;;;;;;2.83;1.05;;;;;;;;;;5052488;28;20025;-70
2023/04/11 08:17:27;;;;;;;2.58;0.88;;;;;;;;;;5052537;28;20021;-69
2023/04/11 08:19:54;;;;;;;2.38;1.42;;;;;;;;;;5052374;28;20111;-70
2023/04/11 08:22:20;;;;;;;3.88;1.13;;;;;;;;;;5052185;28;20032;-70
2023/04/11 08:24:46;;;;;;;2.97;1.25;;;;;;;;;;5052530;28;20033;-73
2023/04/11 08:27:12;;;;;;;6.55;1.75;;;;;;;;;;5052082;28;20096;-70
2023/04/11 08:29:38;;;;;;;3.17;1.23;;;;;;;;;;5052100;28;20166;-70
2023/04/11 08:32:04;;;;;;;5.13;1.40;;;;;;;;;;5051896;28;20032;-71
2023/04/11 08:34:33;;;;;;;4.95;1.55;;;;;;;;;;5052506;28;20023;-72
2023/04/11 08:36:59;;;;;;;7.28;1.90;;;;;;;;;;5052350;28;20021;-70
2023/04/11 08:39:25;;;;;;;4.32;1.33;;;;;;;;;;5052490;28;20067;-71
2023/04/11 08:41:51;;;;;;;6.25;1.35;;;;;;;;;;5052070;28;20086;-71
2023/04/11 08:44:17;;;;;;;2.97;1.50;;;;;;;;;;5052764;28;20032;-70
2023/04/11 08:46:43;;;;;;;3.30;1.58;;;;;;;;;;5052484;28;20108;-70
2023/04/11 08:49:10;;;;;;;5.38;1.63;;;;;;;;;;5052487;28;20047;-71
2023/04/11 08:51:36;;;;;;;6.20;1.70;;;;;;;;;;5052185;28;20061;-74
2023/04/11 08:54:05;;;;;;;6.15;2.17;;;;;;;;;;5053106;28;20040;-71
2023/04/11 08:56:31;;;;;;;7.32;1.90;;;;;;;;;;5052772;28;20057;-73
2023/04/11 08:58:57;;;;;;;7.95;2.58;;;;;;;;;;5052349;28;20124;-71
2023/04/11 09:01:24;;;;;;;5.18;2.47;;;;;;;;;;5051498;28;20451;-72
2023/04/11 09:03:51;;;;;;;7.50;2.60;;;;;;;;;;5051733;28;20372;-71
2023/04/11 09:06:17;;;;;;;8.70;2.95;;;;;;;;;;5052412;28;20025;-71
2023/04/11 09:08:43;;;;;;;10.05;3.45;;;;;;;;;;5051692;28;20343;-69
2023/04/11 09:11:09;;;;;;;13.32;3.25;;;;;;;;;;5051600;28;20036;-70
2023/04/11 09:13:35;;;;;;;8.63;3.38;;;;;;;;;;5051495;28;20017;-69
2023/04/11 09:16:05;;;;;;;11.07;3.13;;;;;;;;;;5051697;28;20422;-70
2023/04/11 09:18:38;;;;;;;8.77;2.80;;;;;;;;;;5051622;28;20078;-71
2023/04/11 09:21:05;;;;;;;9.73;3.60;;;;;;;;;;5051662;28;20116;-70
2023/04/11 09:23:31;;;;;;;20.13;6.85;;;;;;;;;;5051081;28;20087;-69
2023/04/11 09:25:57;;;;;;;22.85;9.73;;;;;;;;;;5051382;28;20513;-69
2023/04/11 09:28:24;;;;;;;13.52;4.03;;;;;;;;;;5051345;28;20468;-70
2023/04/11 09:30:51;;;;;;;17.17;3.33;;;;;;;;;;5051553;28;20052;-70
2023/04/11 09:33:30;;;;;;;9.10;2.78;;;;;;;;;;5051083;28;20032;-70
2023/04/11 09:35:56;;;;;;;12.45;3.22;;;;;;;;;;5052131;28;20021;-71
2023/04/11 09:38:29;;;;;;;8.20;2.70;;;;;;;;;;5051728;28;20155;-71
2023/04/11 09:40:56;;;;;;;10.32;2.75;;;;;;;;;;5052225;28;20394;-70
2023/04/11 09:43:22;;;;;;;9.82;4.45;;;;;;;;;;5051351;28;20108;-70
2023/04/11 09:45:49;;;;;;;15.65;4.75;;;;;;;;;;5051433;28;20063;-70
2023/04/11 09:48:16;;;;;;;11.13;2.90;;;;;;;;;;5051296;28;20105;-70
2023/04/11 09:50:42;;;;;;;11.27;2.35;;;;;;;;;;5051339;28;20127;-73
2023/04/11 09:53:09;;;;;;;9.77;2.40;;;;;;;;;;5051393;28;20493;-72
2023/04/11 09:55:38;;;;;;;10.55;2.90;;;;;;;;;;5051614;28;20021;-73
2023/04/11 09:58:05;;;;;;;12.90;2.60;;;;;;;;;;5051332;28;20158;-72
2023/04/11 10:00:31;;;;;;;12.63;2.80;;;;;;;;;;5051227;28;20021;-73
2023/04/11 10:02:58;;;;;;;5.82;1.77;;;;;;;;;;5050929;28;20108;-70
2023/04/11 10:05:25;;;;;;;7.35;3.05;;;;;;;;;;5051401;28;20112;-73
2023/04/11 10:08:16;;;;;;;8.38;1.83;;;;;;;;;;5051161;28;20021;-71
2023/04/11 10:10:43;;;;;;;5.35;1.83;;;;;;;;;;5051312;28;20044;-71
2023/04/11 10:13:38;;;;;;;4.68;1.20;;;;;;;;;;5054542;28;20455;-70
2023/04/11 10:16:07;;;;;;;;;;;;;;;;;;5042944;28;20033;-71
2023/04/11 10:18:33;;;;;;;5.20;1.50;;;;;;;;;;5055058;28;19912;-70
2023/04/11 10:21:00;;;;;;;4.47;1.15;;;;;;;;;;5055178;28;20488;-71
2023/04/11 10:23:26;;;;;;;4.70;1.33;;;;;;;;;;5054503;28;20509;-69
2023/04/11 10:25:57;;;;;;;3.33;0.80;;;;;;;;;;5054430;28;20036;-70
2023/04/11 10:28:41;;;;;;;4.30;1.38;;;;;;;;;;5054299;28;20106;-71
2023/04/11 10:31:08;;;;;;;3.65;1.20;;;;;;;;;;5054419;28;20025;-71
2023/04/11 10:33:36;;;;;;;5.65;1.20;;;;;;;;;;5054220;28;20067;-71
2023/04/11 10:36:02;;;;;;;4.18;1.25;;;;;;;;;;5054724;28;20089;-72
2023/04/11 10:38:42;;;;;;;4.63;1.30;;;;;;;;;;5054215;28;20040;-71
2023/04/11 10:41:13;;;;;;;9.18;1.23;;;;;;;;;;5054988;28;20079;-73
2023/04/11 10:43:39;;;;;;;3.53;1.55;;;;;;;;;;5054909;28;20103;-70
2023/04/11 10:46:22;;;;;;;3.25;0.90;;;;;;;;;;5055096;28;20514;-71
2023/04/11 10:49:01;;;;;;;4.28;1.30;;;;;;;;;;5054712;28;20029;-72
2023/04/11 10:51:33;;;;;;;5.82;1.00;;;;;;;;;;5055209;28;20479;-71
2023/04/11 10:53:59;;;;;;;7.50;1.38;;;;;;;;;;5054598;28;20029;-71
2023/04/11 10:56:53;;;;;;;4.97;1.30;;;;;;;;;;5054737;28;20033;-71
2023/04/11 10:59:31;;;;;;;6.47;1.05;;;;;;;;;;5054788;28;20431;-72
2023/04/11 11:01:59;;;;;;;18.60;2.35;;;;;;;;;;5054154;28;20043;-71
2023/04/11 11:04:35;;;;;;;5.75;1.20;;;;;;;;;;5054129;28;20420;-71
2023/04/11 11:07:04;;;;;;;10.82;1.58;;;;;;;;;;5054443;28;20029;-73
2023/04/11 11:09:30;;;;;;;2.42;1.00;;;;;;;;;;5055512;28;20025;-74
2023/04/11 11:12:08;;;;;;;1.33;0.60;;;;;;;;;;5055371;28;20497;-74
2023/04/11 11:14:35;;;;;;;5.80;0.90;;;;;;;;;;5057594;28;20029;-71
2023/04/11 11:17:01;;;;;;;3.00;0.82;;;;;;;;;;5055740;28;20044;-72
2023/04/11 11:19:29;;;;;;;9.52;1.00;;;;;;;;;;5055945;28;20021;-75
2023/04/11 11:21:58;;;;;;;2.40;0.57;;;;;;;;;;5055524;28;20100;-72
2023/04/11 11:24:27;;;;;;;5.88;1.23;;;;;;;;;;5037046;28;20029;-71
2023/04/11 11:26:54;;;;;;;4.28;1.00;;;;;;;;;;5053255;28;20033;-72
2023/04/11 11:29:39;;;;;;;3.95;1.05;;;;;;;;;;5052944;28;20032;-72
2023/04/11 11:32:05;;;;;;;;;;;;;;;;;;5053852;28;20027;-72
2023/04/11 11:34:31;;;;;;;1.67;0.80;;;;;;;;;;5054907;28;19904;-72
2023/04/11 11:37:00;;;;;;;2.63;0.80;;;;;;;;;;5054416;28;20043;-70
2023/04/11 11:39:26;;;;;;;3.22;1.00;;;;;;;;;;5053583;28;20308;-70
2023/04/11 11:41:53;;;;;;;2.60;0.80;;;;;;;;;;5035015;28;20029;-70
2023/04/11 11:44:26;;;;;;;4.50;0.80;;;;;;;;;;5053093;28;20025;-72
2023/04/11 11:47:01;;;;;;;4.55;1.33;;;;;;;;;;5053083;28;20475;-70
2023/04/11 11:49:27;;;;;;;6.85;1.00;;;;;;;;;;5053607;28;20047;-72
2023/04/11 11:51:53;;;;;;;7.40;3.40;;;;;;;;;;5057532;28;20029;-71
2023/04/11 11:54:19;;;;;;;8.55;1.20;;;;;;;;;;5058498;28;20056;-72
2023/04/11 11:56:49;;;;;;;5.32;1.45;;;;;;;;;;5057170;28;20035;-71
2023/04/11 11:59:25;;;;;;;5.50;1.15;;;;;;;;;;5052605;28;20025;-72
2023/04/11 12:01:51;;;;;;;8.55;1.30;;;;;;;;;;5052472;28;20534;-70
2023/04/11 12:04:18;;;;;;;6.45;1.45;;;;;;;;;;5052821;28;20505;-71
2023/04/11 12:06:44;;;;;;;4.25;1.23;;;;;;;;;;5052549;28;20041;-71
2023/04/11 12:09:11;;;;;;;2.10;0.80;;;;;;;;;;5052101;28;20025;-71
2023/04/11 12:11:40;;;;;;;4.15;1.02;;;;;;;;;;5055090;28;20025;-71
2023/04/11 12:14:07;;;;;;;4.15;0.80;;;;;;;;;;5064278;28;20029;-71
2023/04/11 12:16:33;;;;;;;5.05;0.82;;;;;;;;;;5065804;28;20013;-72
2023/04/11 12:19:01;;;;;;;3.63;0.80;;;;;;;;;;5065501;28;20029;-73
2023/04/11 12:21:28;;;;;;;5.20;1.17;;;;;;;;;;5062549;28;20025;-72
2023/04/11 12:23:54;;;;;;;3.05;0.85;;;;;;;;;;5056859;28;20102;-71
2023/04/11 12:26:21;;;;;;;3.13;1.33;;;;;;;;;;5052994;28;20021;-71
2023/04/11 12:28:48;;;;;;;5.70;1.65;;;;;;;;;;5052500;28;20025;-71
2023/04/11 12:31:15;;;;;;;5.95;1.00;;;;;;;;;;5052689;28;20113;-72
2023/04/11 12:33:41;;;;;;;6.63;1.30;;;;;;;;;;5052897;28;20044;-72
2023/04/11 12:36:07;;;;;;;4.13;1.10;;;;;;;;;;5066322;28;20016;-70
2023/04/11 12:38:33;;;;;;;4.38;0.80;;;;;;;;;;5072615;28;20039;-71
2023/04/11 12:40:59;;;;;;;5.18;1.05;;;;;;;;;;5072507;28;20493;-71
2023/04/11 12:43:25;;;;;;;2.05;0.70;;;;;;;;;;5071585;28;20037;-71
2023/04/11 12:45:52;;;;;;;2.00;0.75;;;;;;;;;;5073570;28;20040;-74
2023/04/11 12:48:18;;;;;;;4.35;1.00;;;;;;;;;;5072082;28;20432;-75
2023/04/11 12:50:44;;;;;;;3.75;1.20;;;;;;;;;;5072989;28;20020;-74
2023/04/11 12:53:10;;;;;;;3.92;1.60;;;;;;;;;;5071915;28;20021;-73
2023/04/11 12:55:36;;;;;;;3.53;1.13;;;;;;;;;;5074189;28;20101;-71
2023/04/11 12:58:02;;;;;;;3.60;1.10;;;;;;;;;;5070136;28;20024;-72
2023/04/11 13:00:28;;;;;;;3.72;0.80;;;;;;;;;;5058488;28;20025;-71
2023/04/11 13:02:56;;;;;;;5.18;1.02;;;;;;;;;;5060952;28;20020;-71
2023/04/11 13:05:22;;;;;;;9.07;1.52;;;;;;;;;;5065488;28;20050;-71
2023/04/11 13:07:48;;;;;;;10.13;1.90;;;;;;;;;;5055616;28;20021;-71
2023/04/11 13:10:15;;;;;;;8.68;1.50;;;;;;;;;;5063249;28;20029;-71
2023/04/11 13:12:43;;;;;;;11.18;1.50;;;;;;;;;;5064426;28;20048;-72
2023/04/11 13:15:10;;;;;;;6.70;1.58;;;;;;;;;;5065750;28;20055;-70
2023/04/11 13:17:36;;;;;;;10.63;2.60;;;;;;;;;;5056214;28;20582;-72
2023/04/11 13:20:06;;;;;;;8.35;2.85;;;;;;;;;;5063421;28;20068;-71
2023/04/11 13:22:32;;;;;;;12.48;2.42;;;;;;;;;;5061991;28;20065;-70
2023/04/11 13:24:58;;;;;;;13.45;2.20;;;;;;;;;;5058301;28;20024;-72
2023/04/11 13:27:24;;;;;;;14.63;3.10;;;;;;;;;;5058753;28;20029;-71
2023/04/11 13:29:50;;;;;;;18.13;2.47;;;;;;;;;;5062982;28;20031;-72
2023/04/11 13:32:16;;;;;;;12.68;2.17;;;;;;;;;;5062673;28;20044;-70
2023/04/11 13:34:42;;;;;;;14.27;2.20;;;;;;;;;;5060699;28;20024;-70
2023/04/11 13:37:08;;;;;;;12.82;2.53;;;;;;;;;;5059452;28;20474;-70
2023/04/11 13:39:34;;;;;;;11.02;1.88;;;;;;;;;;5060592;28;20063;-70
2023/04/11 13:42:00;;;;;;;9.23;1.73;;;;;;;;;;5062471;28;20025;-70
2023/04/11 13:44:26;;;;;;;8.45;2.15;;;;;;;;;;5060351;28;20061;-71
2023/04/11 13:46:52;;;;;;;15.13;2.10;;;;;;;;;;5069097;28;20479;-72
2023/04/11 13:49:19;;;;;;;10.57;2.20;;;;;;;;;;5063991;28;20482;-73
2023/04/11 13:51:45;;;;;;;11.30;2.35;;;;;;;;;;5066922;28;20025;-71
2023/04/11 13:54:11;;;;;;;7.85;2.05;;;;;;;;;;5066144;28;20053;-72
2023/04/11 13:56:37;;;;;;;6.97;1.52;;;;;;;;;;5065483;28;20028;-72
2023/04/11 13:59:03;;;;;;;17.70;2.55;;;;;;;;;;5066951;28;20033;-72
2023/04/11 14:01:29;;;;;;;14.48;2.47;;;;;;;;;;5067342;28;20099;-71
2023/04/11 14:03:55;;;;;;;14.48;2.90;;;;;;;;;;5067250;28;20119;-71
2023/04/11 14:06:21;;;;;;;24.88;5.50;;;;;;;;;;5059775;28;20021;-71
2023/04/11 14:08:47;;;;;;;18.67;3.45;;;;;;;;;;5055331;28;20021;-71
2023/04/11 14:11:13;;;;;;;14.55;2.47;;;;;;;;;;5056336;28;20060;-71
2023/04/11 14:13:39;;;;;;;20.25;2.92;;;;;;;;;;5057329;28;20055;-71
2023/04/11 14:16:05;;;;;;;17.65;3.20;;;;;;;;;;5058624;28;20021;-73
2023/04/11 14:18:31;;;;;;;22.65;2.78;;;;;;;;;;5057030;28;20048;-71
2023/04/11 14:20:59;;;;;;;19.30;3.05;;;;;;;;;;5071802;28;20071;-71
2023/04/11 14:23:25;;;;;;;26.63;4.32;;;;;;;;;;5054606;28;20590;-70
2023/04/11 14:25:51;;;;;;;20.17;4.03;;;;;;;;;;5054621;28;20032;-71
2023/04/11 14:28:18;;;;;;;33.70;5.00;;;;;;;;;;5073868;28;20036;-73
2023/04/11 14:30:44;;;;;;;20.90;3.20;;;;;;;;;;5074288;28;20028;-71
2023/04/11 14:33:11;;;;;;;27.73;7.45;;;;;;;;;;5073945;28;20115;-70
2023/04/11 14:35:37;;;;;;;15.32;3.00;;;;;;;;;;5074718;28;20387;-71
2023/04/11 14:38:03;;;;;;;17.30;3.42;;;;;;;;;;5073833;28;20036;-70
2023/04/11 14:40:29;;;;;;;17.83;3.92;;;;;;;;;;5074383;28;20150;-70